sensor_id;sensor_type;location;lat;lon;timestamp;pressure;altitude;pressure_sealevel;temperature;humidity
8061;BME280;4073;42.626;25.386;2023-04-28T00:01:24;97278.72;;;10.11;53.23
8061;BME280;4073;42.626;25.386;2023-04-28T00:03:49;97293.94;;;10.21;52.95
8061;BME280;4073;42.626;25.386;2023-04-28T00:06:15;97281.13;;;10.23;53.26
8061;BME280;4073;42.626;25.386;2023-04-28T00:08:40;97284.06;;;10.26;52.74
8061;BME280;4073;42.626;25.386;2023-04-28T00:11:09;97278.44;;;10.28;52.41
8061;BME280;4073;42.626;25.386;2023-04-28T00:13:35;97264.84;;;10.14;52.88
8061;BME280;4073;42.626;25.386;2023-04-28T00:16:01;97242.38;;;10.10;52.29
8061;BME280;4073;42.626;25.386;2023-04-28T00:18:26;97266.41;;;10.30;52.87
8061;BME280;4073;42.626;25.386;2023-04-28T00:20:54;97271.50;;;10.32;52.16
8061;BME280;4073;42.626;25.386;2023-04-28T00:23:19;97255.47;;;10.17;52.95
8061;BME280;4073;42.626;25.386;2023-04-28T00:25:52;97270.44;;;10.28;52.55
8061;BME280;4073;42.626;25.386;2023-04-28T00:28:19;97289.66;;;10.25;52.20
8061;BME280;4073;42.626;25.386;2023-04-28T00:30:45;97243.19;;;10.06;52.90
8061;BME280;4073;42.626;25.386;2023-04-28T00:33:11;97268.56;;;10.28;50.80
8061;BME280;4073;42.626;25.386;2023-04-28T00:35:37;97258.69;;;10.24;51.38
8061;BME280;4073;42.626;25.386;2023-04-28T00:38:03;97264.28;;;10.22;51.80
8061;BME280;4073;42.626;25.386;2023-04-28T00:40:35;97266.69;;;10.24;52.25
8061;BME280;4073;42.626;25.386;2023-04-28T00:43:01;97258.94;;;10.27;51.50
8061;BME280;4073;42.626;25.386;2023-04-28T00:45:27;97240.47;;;10.01;52.48
8061;BME280;4073;42.626;25.386;2023-04-28T00:47:53;97267.78;;;10.23;52.40
8061;BME280;4073;42.626;25.386;2023-04-28T00:50:21;97270.16;;;10.19;52.74
8061;BME280;4073;42.626;25.386;2023-04-28T00:52:46;97272.84;;;10.14;53.64
8061;BME280;4073;42.626;25.386;2023-04-28T00:55:14;97274.16;;;10.12;53.50
8061;BME280;4073;42.626;25.386;2023-04-28T00:57:41;97268.25;;;10.05;54.17
8061;BME280;4073;42.626;25.386;2023-04-28T01:00:08;97280.28;;;9.97;54.48
8061;BME280;4073;42.626;25.386;2023-04-28T01:02:36;97275.97;;;9.91;54.99
8061;BME280;4073;42.626;25.386;2023-04-28T01:05:03;97250.84;;;9.77;54.92
8061;BME280;4073;42.626;25.386;2023-04-28T01:07:30;97293.56;;;9.82;55.50
8061;BME280;4073;42.626;25.386;2023-04-28T01:09:55;97286.63;;;9.81;55.74
8061;BME280;4073;42.626;25.386;2023-04-28T01:12:22;97259.09;;;9.66;55.73
8061;BME280;4073;42.626;25.386;2023-04-28T01:14:50;97299.72;;;9.88;55.02
8061;BME280;4073;42.626;25.386;2023-04-28T01:17:16;97280.78;;;9.84;54.58
8061;BME280;4073;42.626;25.386;2023-04-28T01:19:42;97299.69;;;9.78;54.98
8061;BME280;4073;42.626;25.386;2023-04-28T01:22:07;97293.31;;;9.79;55.02
8061;BME280;4073;42.626;25.386;2023-04-28T01:24:38;97283.69;;;9.78;55.00
8061;BME280;4073;42.626;25.386;2023-04-28T01:27:03;97299.69;;;9.73;55.71
8061;BME280;4073;42.626;25.386;2023-04-28T01:29:29;97290.63;;;9.74;55.39
8061;BME280;4073;42.626;25.386;2023-04-28T01:31:54;97281.75;;;9.53;55.79
8061;BME280;4073;42.626;25.386;2023-04-28T01:34:19;97300.22;;;9.65;56.02
8061;BME280;4073;42.626;25.386;2023-04-28T01:36:45;97287.13;;;9.63;55.62
8061;BME280;4073;42.626;25.386;2023-04-28T01:39:10;97285.53;;;9.67;55.46
8061;BME280;4073;42.626;25.386;2023-04-28T01:41:36;97287.41;;;9.62;55.62
8061;BME280;4073;42.626;25.386;2023-04-28T01:44:01;97289.50;;;9.60;56.42
8061;BME280;4073;42.626;25.386;2023-04-28T01:46:28;97290.84;;;9.62;56.61
8061;BME280;4073;42.626;25.386;2023-04-28T01:48:53;97281.75;;;9.58;55.23
8061;BME280;4073;42.626;25.386;2023-04-28T01:51:18;97283.09;;;9.61;55.53
8061;BME280;4073;42.626;25.386;2023-04-28T01:53:44;97285.50;;;9.57;55.53
8061;BME280;4073;42.626;25.386;2023-04-28T01:56:09;97287.88;;;9.54;55.93
8061;BME280;4073;42.626;25.386;2023-04-28T01:58:35;97283.31;;;9.44;56.34
8061;BME280;4073;42.626;25.386;2023-04-28T02:01:00;97292.41;;;9.43;56.40
8061;BME280;4073;42.626;25.386;2023-04-28T02:03:26;97305.69;;;9.38;56.91
8061;BME280;4073;42.626;25.386;2023-04-28T02:05:53;97291.53;;;9.33;57.70
8061;BME280;4073;42.626;25.386;2023-04-28T02:08:18;97311.56;;;9.35;56.60
8061;BME280;4073;42.626;25.386;2023-04-28T02:10:44;97293.09;;;9.19;56.65
8061;BME280;4073;42.626;25.386;2023-04-28T02:13:09;97312.38;;;9.36;55.74
8061;BME280;4073;42.626;25.386;2023-04-28T02:15:41;97307.81;;;9.26;56.14
8061;BME280;4073;42.626;25.386;2023-04-28T02:18:07;97310.97;;;9.23;56.79
8061;BME280;4073;42.626;25.386;2023-04-28T02:20:33;97329.72;;;9.38;56.73
8061;BME280;4073;42.626;25.386;2023-04-28T02:22:58;97309.66;;;9.21;57.27
8061;BME280;4073;42.626;25.386;2023-04-28T02:25:24;97356.97;;;9.40;57.46
8061;BME280;4073;42.626;25.386;2023-04-28T02:27:49;97354.81;;;9.37;57.17
8061;BME280;4073;42.626;25.386;2023-04-28T02:30:15;97351.06;;;9.33;57.25
8061;BME280;4073;42.626;25.386;2023-04-28T02:32:40;97354.81;;;9.37;57.36
8061;BME280;4073;42.626;25.386;2023-04-28T02:35:06;97370.00;;;9.37;56.89
8061;BME280;4073;42.626;25.386;2023-04-28T02:37:32;97375.06;;;9.38;57.07
8061;BME280;4073;42.626;25.386;2023-04-28T02:39:57;97363.31;;;9.34;57.08
8061;BME280;4073;42.626;25.386;2023-04-28T02:42:23;97372.97;;;9.40;57.18
8061;BME280;4073;42.626;25.386;2023-04-28T02:44:48;97333.16;;;9.29;55.33
8061;BME280;4073;42.626;25.386;2023-04-28T02:47:14;97367.38;;;9.42;54.50
8061;BME280;4073;42.626;25.386;2023-04-28T02:49:39;97344.91;;;9.33;53.58
8061;BME280;4073;42.626;25.386;2023-04-28T02:52:05;97345.72;;;9.33;53.57
8061;BME280;4073;42.626;25.386;2023-04-28T02:54:30;97380.25;;;9.60;52.26
8061;BME280;4073;42.626;25.386;2023-04-28T02:56:58;97377.91;;;9.63;52.55
8061;BME280;4073;42.626;25.386;2023-04-28T02:59:24;97373.06;;;9.65;52.67
8061;BME280;4073;42.626;25.386;2023-04-28T03:01:50;97380.88;;;9.72;51.11
8061;BME280;4073;42.626;25.386;2023-04-28T03:04:16;97397.16;;;9.75;54.91
8061;BME280;4073;42.626;25.386;2023-04-28T03:06:41;97394.72;;;9.69;53.04
8061;BME280;4073;42.626;25.386;2023-04-28T03:09:07;97386.72;;;9.74;53.05
8061;BME280;4073;42.626;25.386;2023-04-28T03:11:33;97395.00;;;9.67;52.75
8061;BME280;4073;42.626;25.386;2023-04-28T03:13:58;97389.13;;;9.70;54.47
8061;BME280;4073;42.626;25.386;2023-04-28T03:16:24;97375.75;;;9.60;54.18
8061;BME280;4073;42.626;25.386;2023-04-28T03:18:50;97394.38;;;9.55;55.12
8061;BME280;4073;42.626;25.386;2023-04-28T03:21:15;97373.53;;;9.47;59.63
8061;BME280;4073;42.626;25.386;2023-04-28T03:23:41;97390.88;;;9.50;55.43
8061;BME280;4073;42.626;25.386;2023-04-28T03:26:06;97404.72;;;9.42;54.92
8061;BME280;4073;42.626;25.386;2023-04-28T03:28:32;97393.81;;;9.43;55.23
8061;BME280;4073;42.626;25.386;2023-04-28T03:30:57;97391.91;;;9.39;55.50
8061;BME280;4073;42.626;25.386;2023-04-28T03:33:23;97383.78;;;9.24;55.35
8061;BME280;4073;42.626;25.386;2023-04-28T03:35:48;97403.09;;;9.41;55.60
8061;BME280;4073;42.626;25.386;2023-04-28T03:38:13;97411.34;;;9.34;58.04
8061;BME280;4073;42.626;25.386;2023-04-28T03:40:39;97421.47;;;9.32;58.57
8061;BME280;4073;42.626;25.386;2023-04-28T03:43:05;97425.19;;;9.26;55.84
8061;BME280;4073;42.626;25.386;2023-04-28T03:45:30;97422.78;;;9.30;55.66
8061;BME280;4073;42.626;25.386;2023-04-28T03:47:56;97427.59;;;9.33;59.35
8061;BME280;4073;42.626;25.386;2023-04-28T03:50:21;97428.19;;;9.40;56.77
8061;BME280;4073;42.626;25.386;2023-04-28T03:52:47;97439.69;;;9.45;58.52
8061;BME280;4073;42.626;25.386;2023-04-28T03:55:12;97453.09;;;9.50;58.49
8061;BME280;4073;42.626;25.386;2023-04-28T03:57:38;97456.06;;;9.59;61.50
8061;BME280;4073;42.626;25.386;2023-04-28T04:00:04;97440.06;;;9.59;57.23
8061;BME280;4073;42.626;25.386;2023-04-28T04:02:29;97465.19;;;9.68;56.51
8061;BME280;4073;42.626;25.386;2023-04-28T04:04:55;97459.78;;;9.58;57.13
8061;BME280;4073;42.626;25.386;2023-04-28T04:07:21;97470.75;;;9.56;58.09
8061;BME280;4073;42.626;25.386;2023-04-28T04:09:46;97449.78;;;9.33;56.56
8061;BME280;4073;42.626;25.386;2023-04-28T04:12:12;97470.94;;;9.45;56.96
8061;BME280;4073;42.626;25.386;2023-04-28T04:14:37;97462.34;;;9.38;58.58
8061;BME280;4073;42.626;25.386;2023-04-28T04:17:03;97499.88;;;9.63;59.84
8061;BME280;4073;42.626;25.386;2023-04-28T04:19:29;97486.47;;;9.58;57.00
8061;BME280;4073;42.626;25.386;2023-04-28T04:21:54;97465.53;;;9.40;56.74
8061;BME280;4073;42.626;25.386;2023-04-28T04:24:19;97475.13;;;9.36;56.78
8061;BME280;4073;42.626;25.386;2023-04-28T04:26:45;97499.72;;;9.43;56.34
8061;BME280;4073;42.626;25.386;2023-04-28T04:29:11;97512.06;;;9.49;57.12
8061;BME280;4073;42.626;25.386;2023-04-28T04:31:36;97492.88;;;9.52;55.27
8061;BME280;4073;42.626;25.386;2023-04-28T04:34:02;97506.78;;;9.59;54.89
8061;BME280;4073;42.626;25.386;2023-04-28T04:36:27;97491.78;;;9.53;54.91
8061;BME280;4073;42.626;25.386;2023-04-28T04:38:52;97517.34;;;9.80;55.25
8061;BME280;4073;42.626;25.386;2023-04-28T04:41:18;97524.50;;;9.75;54.14
8061;BME280;4073;42.626;25.386;2023-04-28T04:43:47;97494.91;;;9.81;56.08
8061;BME280;4073;42.626;25.386;2023-04-28T04:46:13;97528.75;;;10.07;55.05
8061;BME280;4073;42.626;25.386;2023-04-28T04:48:40;97533.63;;;10.25;54.10
8061;BME280;4073;42.626;25.386;2023-04-28T04:51:09;97528.13;;;10.47;52.91
8061;BME280;4073;42.626;25.386;2023-04-28T04:53:34;97543.13;;;10.63;54.02
8061;BME280;4073;42.626;25.386;2023-04-28T04:56:00;97542.66;;;10.81;55.02
8061;BME280;4073;42.626;25.386;2023-04-28T04:58:27;97552.88;;;10.94;50.84
8061;BME280;4073;42.626;25.386;2023-04-28T05:01:00;97526.59;;;10.76;51.50
8061;BME280;4073;42.626;25.386;2023-04-28T05:03:26;97545.13;;;11.13;49.21
8061;BME280;4073;42.626;25.386;2023-04-28T05:05:51;97527.47;;;11.27;49.70
8061;BME280;4073;42.626;25.386;2023-04-28T05:08:17;97535.50;;;11.07;50.29
8061;BME280;4073;42.626;25.386;2023-04-28T05:10:42;97556.66;;;11.53;48.85
8061;BME280;4073;42.626;25.386;2023-04-28T05:13:08;97556.41;;;11.85;50.89
8061;BME280;4073;42.626;25.386;2023-04-28T05:15:33;97551.53;;;12.12;48.00
8061;BME280;4073;42.626;25.386;2023-04-28T05:17:59;97535.44;;;12.22;47.35
8061;BME280;4073;42.626;25.386;2023-04-28T05:20:24;97569.44;;;12.31;48.22
8061;BME280;4073;42.626;25.386;2023-04-28T05:22:50;97556.88;;;12.07;47.05
8061;BME280;4073;42.626;25.386;2023-04-28T05:25:16;97564.69;;;11.98;48.48
8061;BME280;4073;42.626;25.386;2023-04-28T05:27:41;97563.88;;;12.03;47.83
8061;BME280;4073;42.626;25.386;2023-04-28T05:30:08;97566.56;;;11.98;46.85
8061;BME280;4073;42.626;25.386;2023-04-28T05:32:35;97562.78;;;12.09;46.82
8061;BME280;4073;42.626;25.386;2023-04-28T05:35:01;97551.03;;;11.95;47.11
8061;BME280;4073;42.626;25.386;2023-04-28T05:37:30;97556.63;;;12.08;46.45
8061;BME280;4073;42.626;25.386;2023-04-28T05:40:04;97560.94;;;11.99;46.60
8061;BME280;4073;42.626;25.386;2023-04-28T05:42:30;97583.69;;;12.22;47.09
8061;BME280;4073;42.626;25.386;2023-04-28T05:44:56;97586.28;;;12.47;46.52
8061;BME280;4073;42.626;25.386;2023-04-28T05:47:21;97589.16;;;12.65;45.55
8061;BME280;4073;42.626;25.386;2023-04-28T05:49:47;97599.59;;;12.72;45.97
8061;BME280;4073;42.626;25.386;2023-04-28T05:52:12;97600.56;;;12.27;45.38
8061;BME280;4073;42.626;25.386;2023-04-28T05:54:37;97596.78;;;12.28;46.43
8061;BME280;4073;42.626;25.386;2023-04-28T05:57:03;97598.41;;;12.24;47.14
8061;BME280;4073;42.626;25.386;2023-04-28T05:59:29;97593.53;;;12.36;45.67
8061;BME280;4073;42.626;25.386;2023-04-28T06:01:55;97592.75;;;12.31;45.29
8061;BME280;4073;42.626;25.386;2023-04-28T06:04:21;97600.00;;;12.25;47.61
8061;BME280;4073;42.626;25.386;2023-04-28T06:06:46;97580.97;;;12.27;46.19
8061;BME280;4073;42.626;25.386;2023-04-28T06:09:12;97605.56;;;12.59;44.95
8061;BME280;4073;42.626;25.386;2023-04-28T06:11:37;97593.34;;;12.91;44.14
8061;BME280;4073;42.626;25.386;2023-04-28T06:14:03;97615.06;;;12.95;45.48
8061;BME280;4073;42.626;25.386;2023-04-28T06:16:28;97612.97;;;12.82;44.69
8061;BME280;4073;42.626;25.386;2023-04-28T06:18:54;97607.34;;;12.73;43.96
8061;BME280;4073;42.626;25.386;2023-04-28T06:21:19;97614.38;;;12.59;45.58
8061;BME280;4073;42.626;25.386;2023-04-28T06:23:45;97614.19;;;12.46;44.93
8061;BME280;4073;42.626;25.386;2023-04-28T06:26:11;97611.25;;;12.32;45.78
8061;BME280;4073;42.626;25.386;2023-04-28T06:28:36;97617.50;;;11.98;46.54
8061;BME280;4073;42.626;25.386;2023-04-28T06:31:02;97609.44;;;11.63;47.92
8061;BME280;4073;42.626;25.386;2023-04-28T06:33:27;97617.16;;;11.44;49.38
8061;BME280;4073;42.626;25.386;2023-04-28T06:35:53;97602.41;;;11.32;50.39
8061;BME280;4073;42.626;25.386;2023-04-28T06:38:18;97620.34;;;11.31;50.18
8061;BME280;4073;42.626;25.386;2023-04-28T06:40:44;97602.66;;;11.20;51.08
8061;BME280;4073;42.626;25.386;2023-04-28T06:43:12;97618.16;;;11.13;51.81
8061;BME280;4073;42.626;25.386;2023-04-28T06:45:37;97618.69;;;11.05;51.50
8061;BME280;4073;42.626;25.386;2023-04-28T06:48:04;97625.13;;;11.04;51.15
8061;BME280;4073;42.626;25.386;2023-04-28T06:50:30;97604.75;;;11.03;51.77
8061;BME280;4073;42.626;25.386;2023-04-28T06:52:55;97622.72;;;11.23;52.23
8061;BME280;4073;42.626;25.386;2023-04-28T06:55:21;97624.38;;;11.39;50.49
8061;BME280;4073;42.626;25.386;2023-04-28T06:57:47;97611.28;;;11.47;51.04
8061;BME280;4073;42.626;25.386;2023-04-28T07:00:14;97585.81;;;11.40;50.51
8061;BME280;4073;42.626;25.386;2023-04-28T07:02:40;97617.75;;;11.61;50.36
8061;BME280;4073;42.626;25.386;2023-04-28T07:05:05;97613.47;;;11.70;51.21
8061;BME280;4073;42.626;25.386;2023-04-28T07:07:31;97618.00;;;11.90;51.60
8061;BME280;4073;42.626;25.386;2023-04-28T07:09:56;97622.53;;;12.09;48.57
8061;BME280;4073;42.626;25.386;2023-04-28T07:12:23;97592.03;;;11.90;49.32
8061;BME280;4073;42.626;25.386;2023-04-28T07:14:48;97606.50;;;11.94;49.35
8061;BME280;4073;42.626;25.386;2023-04-28T07:17:15;97565.53;;;11.64;50.54
8061;BME280;4073;42.626;25.386;2023-04-28T07:19:40;97573.78;;;11.57;51.05
8061;BME280;4073;42.626;25.386;2023-04-28T07:22:06;97598.72;;;11.63;52.41
8061;BME280;4073;42.626;25.386;2023-04-28T07:24:31;97610.75;;;11.60;51.87
8061;BME280;4073;42.626;25.386;2023-04-28T07:26:57;97608.06;;;11.60;52.01
8061;BME280;4073;42.626;25.386;2023-04-28T07:29:23;97605.13;;;11.52;52.45
8061;BME280;4073;42.626;25.386;2023-04-28T07:31:48;97610.97;;;11.24;52.87
8061;BME280;4073;42.626;25.386;2023-04-28T07:34:14;97611.75;;;11.09;53.26
8061;BME280;4073;42.626;25.386;2023-04-28T07:36:39;97610.13;;;11.03;53.72
8061;BME280;4073;42.626;25.386;2023-04-28T07:39:05;97618.69;;;11.05;54.16
8061;BME280;4073;42.626;25.386;2023-04-28T07:41:38;97607.72;;;11.07;54.56
8061;BME280;4073;42.626;25.386;2023-04-28T07:44:05;97591.09;;;10.95;54.52
8061;BME280;4073;42.626;25.386;2023-04-28T07:46:31;97600.47;;;10.92;54.66
8061;BME280;4073;42.626;25.386;2023-04-28T07:48:56;97597.75;;;10.82;55.85
8061;BME280;4073;42.626;25.386;2023-04-28T07:51:22;97612.47;;;10.80;56.47
8061;BME280;4073;42.626;25.386;2023-04-28T07:53:47;97609.50;;;10.76;57.36
8061;BME280;4073;42.626;25.386;2023-04-28T07:56:12;97612.19;;;10.81;58.23
8061;BME280;4073;42.626;25.386;2023-04-28T07:58:38;97612.94;;;10.67;58.91
8061;BME280;4073;42.626;25.386;2023-04-28T08:01:03;97601.84;;;10.38;59.10
8061;BME280;4073;42.626;25.386;2023-04-28T08:03:29;97608.00;;;10.38;59.26
8061;BME280;4073;42.626;25.386;2023-04-28T08:05:55;97620.00;;;10.36;59.81
8061;BME280;4073;42.626;25.386;2023-04-28T08:08:20;97592.44;;;10.25;58.84
8061;BME280;4073;42.626;25.386;2023-04-28T08:10:45;97610.72;;;10.48;58.89
8061;BME280;4073;42.626;25.386;2023-04-28T08:13:11;97614.53;;;10.63;58.28
8061;BME280;4073;42.626;25.386;2023-04-28T08:15:37;97606.81;;;10.76;57.20
8061;BME280;4073;42.626;25.386;2023-04-28T08:18:02;97615.72;;;11.02;57.17
8061;BME280;4073;42.626;25.386;2023-04-28T08:20:28;97588.75;;;11.18;56.63
8061;BME280;4073;42.626;25.386;2023-04-28T08:22:54;97607.31;;;11.65;55.38
8061;BME280;4073;42.626;25.386;2023-04-28T08:25:20;97601.13;;;11.94;53.85
8061;BME280;4073;42.626;25.386;2023-04-28T08:27:45;97582.63;;;12.13;52.04
8061;BME280;4073;42.626;25.386;2023-04-28T08:30:11;97583.91;;;12.35;50.03
8061;BME280;4073;42.626;25.386;2023-04-28T08:32:36;97601.94;;;12.83;50.34
8061;BME280;4073;42.626;25.386;2023-04-28T08:35:02;97609.59;;;13.20;48.83
8061;BME280;4073;42.626;25.386;2023-04-28T08:37:27;97597.31;;;13.53;47.44
8061;BME280;4073;42.626;25.386;2023-04-28T08:39:53;97591.25;;;13.71;45.28
8061;BME280;4073;42.626;25.386;2023-04-28T08:42:30;97595.69;;;13.85;46.76
8061;BME280;4073;42.626;25.386;2023-04-28T08:44:57;97588.75;;;13.79;46.79
8061;BME280;4073;42.626;25.386;2023-04-28T08:47:36;97586.63;;;13.76;47.54
8061;BME280;4073;42.626;25.386;2023-04-28T08:50:10;97572.06;;;13.49;48.40
8061;BME280;4073;42.626;25.386;2023-04-28T08:52:37;97550.03;;;13.13;50.22
8061;BME280;4073;42.626;25.386;2023-04-28T08:55:10;97570.59;;;13.66;49.45
8061;BME280;4073;42.626;25.386;2023-04-28T08:58:10;97560.03;;;14.03;48.76
8061;BME280;4073;42.626;25.386;2023-04-28T09:00:28;97559.63;;;14.67;46.59
8061;BME280;4073;42.626;25.386;2023-04-28T09:02:54;97563.94;;;14.68;45.24
8061;BME280;4073;42.626;25.386;2023-04-28T09:05:19;97561.94;;;14.97;45.28
8061;BME280;4073;42.626;25.386;2023-04-28T09:07:45;97550.81;;;14.85;45.10
8061;BME280;4073;42.626;25.386;2023-04-28T09:10:20;97549.06;;;14.52;45.70
8061;BME280;4073;42.626;25.386;2023-04-28T09:12:47;97553.16;;;14.44;47.17
8061;BME280;4073;42.626;25.386;2023-04-28T09:15:33;97555.25;;;14.71;47.84
8061;BME280;4073;42.626;25.386;2023-04-28T09:17:59;97532.59;;;15.32;45.00
8061;BME280;4073;42.626;25.386;2023-04-28T09:20:27;97552.16;;;16.07;43.49
8061;BME280;4073;42.626;25.386;2023-04-28T09:22:54;97548.50;;;16.57;41.31
8061;BME280;4073;42.626;25.386;2023-04-28T09:25:20;97559.56;;;16.83;40.58
8061;BME280;4073;42.626;25.386;2023-04-28T09:27:47;97523.34;;;16.97;39.21
8061;BME280;4073;42.626;25.386;2023-04-28T09:30:13;97545.44;;;17.48;37.98
8061;BME280;4073;42.626;25.386;2023-04-28T09:32:39;97540.41;;;17.77;38.58
8061;BME280;4073;42.626;25.386;2023-04-28T09:35:05;97543.22;;;17.72;38.10
8061;BME280;4073;42.626;25.386;2023-04-28T09:37:32;97522.56;;;17.76;37.86
8061;BME280;4073;42.626;25.386;2023-04-28T09:40:05;97537.44;;;18.18;36.09
8061;BME280;4073;42.626;25.386;2023-04-28T09:42:36;97540.88;;;18.02;36.08
8061;BME280;4073;42.626;25.386;2023-04-28T09:45:03;97517.66;;;18.09;36.94
8061;BME280;4073;42.626;25.386;2023-04-28T09:47:29;97532.22;;;18.22;38.02
8061;BME280;4073;42.626;25.386;2023-04-28T09:50:00;97541.84;;;18.06;36.69
8061;BME280;4073;42.626;25.386;2023-04-28T09:52:26;97540.63;;;17.89;37.35
8061;BME280;4073;42.626;25.386;2023-04-28T09:54:53;97523.31;;;17.68;37.68
8061;BME280;4073;42.626;25.386;2023-04-28T09:57:20;97534.63;;;17.70;37.92
8061;BME280;4073;42.626;25.386;2023-04-28T09:59:48;97512.91;;;18.06;37.14
8061;BME280;4073;42.626;25.386;2023-04-28T10:02:15;97518.81;;;18.39;36.47
8061;BME280;4073;42.626;25.386;2023-04-28T10:04:44;97511.88;;;18.72;36.02
8061;BME280;4073;42.626;25.386;2023-04-28T10:07:14;97492.34;;;18.36;34.96
8061;BME280;4073;42.626;25.386;2023-04-28T10:09:42;97484.09;;;18.10;36.04
8061;BME280;4073;42.626;25.386;2023-04-28T10:12:20;97489.31;;;18.07;36.08
8061;BME280;4073;42.626;25.386;2023-04-28T10:14:47;97508.22;;;17.67;36.51
8061;BME280;4073;42.626;25.386;2023-04-28T10:17:22;97507.84;;;17.60;38.28
8061;BME280;4073;42.626;25.386;2023-04-28T10:19:51;97508.31;;;17.84;36.71
8061;BME280;4073;42.626;25.386;2023-04-28T10:27:47;97475.50;;;18.39;37.07
8061;BME280;4073;42.626;25.386;2023-04-28T10:30:21;97489.66;;;18.36;37.24
8061;BME280;4073;42.626;25.386;2023-04-28T10:32:47;97471.66;;;18.40;36.16
8061;BME280;4073;42.626;25.386;2023-04-28T10:38:10;97491.44;;;18.49;35.96
8061;BME280;4073;42.626;25.386;2023-04-28T10:43:07;97484.47;;;18.65;36.20
8061;BME280;4073;42.626;25.386;2023-04-28T10:49:05;97484.84;;;19.14;34.99
8061;BME280;4073;42.626;25.386;2023-04-28T10:58:46;97475.47;;;19.29;34.29
8061;BME280;4073;42.626;25.386;2023-04-28T11:01:25;97480.56;;;19.30;34.26
8061;BME280;4073;42.626;25.386;2023-04-28T11:06:44;97481.53;;;20.06;32.69
8061;BME280;4073;42.626;25.386;2023-04-28T11:11:36;97482.94;;;21.08;29.98
8061;BME280;4073;42.626;25.386;2023-04-28T11:16:55;97490.63;;;20.56;30.73
8061;BME280;4073;42.626;25.386;2023-04-28T11:19:25;97462.31;;;20.86;30.89
8061;BME280;4073;42.626;25.386;2023-04-28T11:21:53;97484.78;;;21.57;31.73
8061;BME280;4073;42.626;25.386;2023-04-28T11:24:20;97480.47;;;21.76;30.02
8061;BME280;4073;42.626;25.386;2023-04-28T11:26:47;97474.34;;;21.59;29.76
8061;BME280;4073;42.626;25.386;2023-04-28T11:29:12;97478.13;;;21.66;29.30
8061;BME280;4073;42.626;25.386;2023-04-28T11:31:40;97458.69;;;21.23;29.08
8061;BME280;4073;42.626;25.386;2023-04-28T11:34:18;97483.16;;;20.74;32.28
8061;BME280;4073;42.626;25.386;2023-04-28T11:36:44;97479.84;;;20.39;31.97
8061;BME280;4073;42.626;25.386;2023-04-28T11:39:11;97467.81;;;20.11;33.19
8061;BME280;4073;42.626;25.386;2023-04-28T11:41:39;97464.94;;;20.07;34.29
8061;BME280;4073;42.626;25.386;2023-04-28T11:46:35;97445.25;;;19.73;33.60
8061;BME280;4073;42.626;25.386;2023-04-28T11:49:04;97463.00;;;19.53;32.83
8061;BME280;4073;42.626;25.386;2023-04-28T11:51:37;97471.66;;;19.47;33.61
8061;BME280;4073;42.626;25.386;2023-04-28T11:54:04;97463.81;;;19.54;33.71
8061;BME280;4073;42.626;25.386;2023-04-28T11:56:35;97467.59;;;19.61;33.26
8061;BME280;4073;42.626;25.386;2023-04-28T11:59:09;97460.31;;;19.36;32.25
8061;BME280;4073;42.626;25.386;2023-04-28T12:01:51;97458.41;;;19.37;32.98
8061;BME280;4073;42.626;25.386;2023-04-28T12:04:30;97425.06;;;19.02;32.98
8061;BME280;4073;42.626;25.386;2023-04-28T12:07:04;97450.28;;;19.11;34.92
8061;BME280;4073;42.626;25.386;2023-04-28T12:09:30;97443.88;;;19.16;33.61
8061;BME280;4073;42.626;25.386;2023-04-28T12:12:01;97443.41;;;19.39;32.76
8061;BME280;4073;42.626;25.386;2023-04-28T12:14:27;97436.72;;;19.45;33.02
8061;BME280;4073;42.626;25.386;2023-04-28T12:16:54;97440.84;;;19.43;32.26
8061;BME280;4073;42.626;25.386;2023-04-28T12:19:21;97431.28;;;19.20;32.49
8061;BME280;4073;42.626;25.386;2023-04-28T12:22:01;97429.53;;;19.15;32.99
8061;BME280;4073;42.626;25.386;2023-04-28T12:24:27;97417.56;;;18.74;34.20
8061;BME280;4073;42.626;25.386;2023-04-28T12:26:53;97430.31;;;18.09;35.39
8061;BME280;4073;42.626;25.386;2023-04-28T12:29:37;97414.03;;;17.69;36.16
8061;BME280;4073;42.626;25.386;2023-04-28T12:32:07;97430.63;;;17.76;36.87
8061;BME280;4073;42.626;25.386;2023-04-28T12:34:33;97430.78;;;17.71;37.62
8061;BME280;4073;42.626;25.386;2023-04-28T12:37:00;97396.50;;;17.58;37.79
8061;BME280;4073;42.626;25.386;2023-04-28T12:39:26;97430.63;;;17.46;37.92
8061;BME280;4073;42.626;25.386;2023-04-28T12:41:52;97405.97;;;17.25;37.14
8061;BME280;4073;42.626;25.386;2023-04-28T12:44:20;97412.13;;;17.17;38.71
8061;BME280;4073;42.626;25.386;2023-04-28T12:46:46;97405.91;;;17.61;37.50
8061;BME280;4073;42.626;25.386;2023-04-28T12:49:12;97407.38;;;18.06;37.99
8061;BME280;4073;42.626;25.386;2023-04-28T12:51:38;97403.41;;;18.21;35.88
8061;BME280;4073;42.626;25.386;2023-04-28T12:54:04;97390.66;;;18.04;36.60
8061;BME280;4073;42.626;25.386;2023-04-28T12:56:29;97398.00;;;17.73;36.07
8061;BME280;4073;42.626;25.386;2023-04-28T12:58:55;97393.03;;;17.36;38.21
8061;BME280;4073;42.626;25.386;2023-04-28T13:01:20;97394.44;;;17.33;38.11
8061;BME280;4073;42.626;25.386;2023-04-28T13:03:45;97390.31;;;17.36;37.31
8061;BME280;4073;42.626;25.386;2023-04-28T13:06:12;97387.75;;;17.53;37.95
8061;BME280;4073;42.626;25.386;2023-04-28T13:08:38;97367.22;;;17.52;36.87
8061;BME280;4073;42.626;25.386;2023-04-28T13:11:04;97380.28;;;17.58;35.99
8061;BME280;4073;42.626;25.386;2023-04-28T13:13:30;97378.03;;;17.30;36.68
8061;BME280;4073;42.626;25.386;2023-04-28T13:15:55;97378.44;;;17.15;36.85
8061;BME280;4073;42.626;25.386;2023-04-28T13:18:22;97366.97;;;17.40;38.25
8061;BME280;4073;42.626;25.386;2023-04-28T13:20:47;97374.19;;;17.44;38.07
8061;BME280;4073;42.626;25.386;2023-04-28T13:23:13;97360.75;;;17.39;37.81
8061;BME280;4073;42.626;25.386;2023-04-28T13:25:38;97366.56;;;17.24;38.00
8061;BME280;4073;42.626;25.386;2023-04-28T13:28:04;97369.28;;;17.02;39.30
8061;BME280;4073;42.626;25.386;2023-04-28T13:30:30;97357.31;;;16.73;40.20
8061;BME280;4073;42.626;25.386;2023-04-28T13:32:55;97375.91;;;16.74;40.24
8061;BME280;4073;42.626;25.386;2023-04-28T13:35:21;97359.06;;;16.42;39.70
8061;BME280;4073;42.626;25.386;2023-04-28T13:37:47;97376.09;;;16.42;40.89
8061;BME280;4073;42.626;25.386;2023-04-28T13:40:12;97358.63;;;16.26;41.94
8061;BME280;4073;42.626;25.386;2023-04-28T13:42:38;97369.75;;;16.60;41.35
8061;BME280;4073;42.626;25.386;2023-04-28T13:45:03;97363.88;;;16.58;40.50